sensor_id;sensor_type;location;lat;lon;timestamp;P1;durP1;ratioP1;P2;durP2;ratioP2
15748;SDS011;7976;52.526;13.326;2023-09-19T00:00:19;7.97;;;2.55;;
15748;SDS011;7976;52.526;13.326;2023-09-19T00:02:52;10.10;;;3.15;;
15748;SDS011;7976;52.526;13.326;2023-09-19T00:05:24;9.18;;;3.13;;
15748;SDS011;7976;52.526;13.326;2023-09-19T00:07:53;9.45;;;3.20;;
15748;SDS011;7976;52.526;13.326;2023-09-19T00:10:21;10.43;;;3.20;;
15748;SDS011;7976;52.526;13.326;2023-09-19T00:12:49;9.98;;;3.20;;
15748;SDS011;7976;52.526;13.326;2023-09-19T00:15:18;11.63;;;3.65;;
15748;SDS011;7976;52.526;13.326;2023-09-19T00:17:45;8.13;;;2.60;;
15748;SDS011;7976;52.526;13.326;2023-09-19T00:20:14;9.27;;;2.58;;
15748;SDS011;7976;52.526;13.326;2023-09-19T00:22:43;9.20;;;3.10;;
15748;SDS011;7976;52.526;13.326;2023-09-19T00:25:11;10.82;;;2.70;;
15748;SDS011;7976;52.526;13.326;2023-09-19T00:27:40;11.45;;;2.53;;
15748;SDS011;7976;52.526;13.326;2023-09-19T00:30:10;7.25;;;2.30;;
15748;SDS011;7976;52.526;13.326;2023-09-19T00:32:41;11.25;;;3.13;;
15748;SDS011;7976;52.526;13.326;2023-09-19T00:35:09;12.25;;;3.38;;
15748;SDS011;7976;52.526;13.326;2023-09-19T00:37:37;11.25;;;3.25;;
15748;SDS011;7976;52.526;13.326;2023-09-19T00:40:06;8.90;;;2.63;;
15748;SDS011;7976;52.526;13.326;2023-09-19T00:42:37;10.50;;;2.75;;
15748;SDS011;7976;52.526;13.326;2023-09-19T00:45:06;9.38;;;2.55;;
15748;SDS011;7976;52.526;13.326;2023-09-19T00:47:36;9.65;;;2.88;;
15748;SDS011;7976;52.526;13.326;2023-09-19T00:50:04;7.45;;;2.47;;
15748;SDS011;7976;52.526;13.326;2023-09-19T00:52:33;8.70;;;2.83;;
15748;SDS011;7976;52.526;13.326;2023-09-19T00:55:05;10.65;;;2.80;;
15748;SDS011;7976;52.526;13.326;2023-09-19T00:57:50;7.63;;;2.45;;
15748;SDS011;7976;52.526;13.326;2023-09-19T01:00:19;6.15;;;2.15;;
15748;SDS011;7976;52.526;13.326;2023-09-19T01:02:46;8.63;;;2.25;;
15748;SDS011;7976;52.526;13.326;2023-09-19T01:05:14;10.25;;;3.25;;
15748;SDS011;7976;52.526;13.326;2023-09-19T01:07:41;11.45;;;3.20;;
15748;SDS011;7976;52.526;13.326;2023-09-19T01:10:11;8.65;;;2.45;;
15748;SDS011;7976;52.526;13.326;2023-09-19T01:12:45;10.32;;;2.90;;
15748;SDS011;7976;52.526;13.326;2023-09-19T01:15:30;7.60;;;2.30;;
15748;SDS011;7976;52.526;13.326;2023-09-19T01:20:42;7.43;;;2.60;;
15748;SDS011;7976;52.526;13.326;2023-09-19T01:23:23;9.80;;;2.63;;
15748;SDS011;7976;52.526;13.326;2023-09-19T01:26:07;6.45;;;2.10;;
15748;SDS011;7976;52.526;13.326;2023-09-19T01:28:54;6.45;;;1.98;;
15748;SDS011;7976;52.526;13.326;2023-09-19T01:31:46;6.82;;;1.88;;
15748;SDS011;7976;52.526;13.326;2023-09-19T01:34:19;7.22;;;2.00;;
15748;SDS011;7976;52.526;13.326;2023-09-19T01:36:45;6.07;;;1.90;;
15748;SDS011;7976;52.526;13.326;2023-09-19T01:39:12;6.78;;;2.20;;
15748;SDS011;7976;52.526;13.326;2023-09-19T01:41:50;9.30;;;2.50;;
15748;SDS011;7976;52.526;13.326;2023-09-19T01:44:31;10.48;;;2.60;;
15748;SDS011;7976;52.526;13.326;2023-09-19T01:47:26;7.53;;;1.88;;
15748;SDS011;7976;52.526;13.326;2023-09-19T01:50:02;5.45;;;1.83;;
15748;SDS011;7976;52.526;13.326;2023-09-19T01:52:45;5.53;;;1.90;;
15748;SDS011;7976;52.526;13.326;2023-09-19T01:55:20;5.38;;;1.95;;
15748;SDS011;7976;52.526;13.326;2023-09-19T01:57:49;6.60;;;2.03;;
15748;SDS011;7976;52.526;13.326;2023-09-19T02:00:29;7.13;;;2.08;;
15748;SDS011;7976;52.526;13.326;2023-09-19T02:03:01;6.53;;;2.00;;
15748;SDS011;7976;52.526;13.326;2023-09-19T02:05:30;7.68;;;1.90;;
15748;SDS011;7976;52.526;13.326;2023-09-19T02:07:58;5.68;;;1.58;;
15748;SDS011;7976;52.526;13.326;2023-09-19T02:10:25;5.70;;;1.90;;
15748;SDS011;7976;52.526;13.326;2023-09-19T02:12:52;5.35;;;1.77;;
15748;SDS011;7976;52.526;13.326;2023-09-19T02:15:20;6.05;;;1.70;;
15748;SDS011;7976;52.526;13.326;2023-09-19T02:17:47;9.27;;;1.70;;
15748;SDS011;7976;52.526;13.326;2023-09-19T02:20:15;5.55;;;1.90;;
15748;SDS011;7976;52.526;13.326;2023-09-19T02:22:45;7.63;;;1.77;;
15748;SDS011;7976;52.526;13.326;2023-09-19T02:25:11;6.15;;;2.00;;
15748;SDS011;7976;52.526;13.326;2023-09-19T02:27:39;8.55;;;2.00;;
15748;SDS011;7976;52.526;13.326;2023-09-19T02:30:07;5.97;;;1.65;;
15748;SDS011;7976;52.526;13.326;2023-09-19T02:32:34;5.72;;;1.77;;
15748;SDS011;7976;52.526;13.326;2023-09-19T02:35:04;5.25;;;1.70;;
15748;SDS011;7976;52.526;13.326;2023-09-19T02:37:37;5.78;;;1.67;;
15748;SDS011;7976;52.526;13.326;2023-09-19T02:40:04;6.53;;;1.95;;
15748;SDS011;7976;52.526;13.326;2023-09-19T02:42:43;9.57;;;1.95;;
15748;SDS011;7976;52.526;13.326;2023-09-19T02:45:13;8.48;;;1.92;;
15748;SDS011;7976;52.526;13.326;2023-09-19T02:47:42;6.25;;;1.95;;
15748;SDS011;7976;52.526;13.326;2023-09-19T02:50:09;5.20;;;1.65;;
15748;SDS011;7976;52.526;13.326;2023-09-19T02:52:38;5.63;;;1.63;;
15748;SDS011;7976;52.526;13.326;2023-09-19T02:55:09;5.85;;;2.10;;
15748;SDS011;7976;52.526;13.326;2023-09-19T02:57:39;6.93;;;1.80;;
15748;SDS011;7976;52.526;13.326;2023-09-19T03:00:08;6.07;;;1.80;;
15748;SDS011;7976;52.526;13.326;2023-09-19T03:02:37;5.22;;;1.95;;
15748;SDS011;7976;52.526;13.326;2023-09-19T03:05:06;7.00;;;1.73;;
15748;SDS011;7976;52.526;13.326;2023-09-19T03:07:38;6.30;;;1.95;;
15748;SDS011;7976;52.526;13.326;2023-09-19T03:10:08;6.82;;;1.77;;
15748;SDS011;7976;52.526;13.326;2023-09-19T03:12:35;5.97;;;1.85;;
15748;SDS011;7976;52.526;13.326;2023-09-19T03:15:03;6.95;;;1.75;;
15748;SDS011;7976;52.526;13.326;2023-09-19T03:17:33;5.05;;;1.75;;
15748;SDS011;7976;52.526;13.326;2023-09-19T03:20:00;6.78;;;1.52;;
15748;SDS011;7976;52.526;13.326;2023-09-19T03:22:29;5.07;;;1.55;;
15748;SDS011;7976;52.526;13.326;2023-09-19T03:24:57;5.38;;;1.45;;
15748;SDS011;7976;52.526;13.326;2023-09-19T03:27:26;5.40;;;1.52;;
15748;SDS011;7976;52.526;13.326;2023-09-19T03:29:53;5.68;;;1.63;;
15748;SDS011;7976;52.526;13.326;2023-09-19T03:32:20;5.28;;;1.77;;
15748;SDS011;7976;52.526;13.326;2023-09-19T03:34:47;5.35;;;1.70;;
15748;SDS011;7976;52.526;13.326;2023-09-19T03:37:15;5.28;;;1.40;;
15748;SDS011;7976;52.526;13.326;2023-09-19T03:39:42;3.85;;;1.65;;
15748;SDS011;7976;52.526;13.326;2023-09-19T03:42:10;4.47;;;1.40;;
15748;SDS011;7976;52.526;13.326;2023-09-19T03:44:38;3.67;;;1.40;;
15748;SDS011;7976;52.526;13.326;2023-09-19T03:47:05;6.68;;;1.98;;
15748;SDS011;7976;52.526;13.326;2023-09-19T03:49:32;4.30;;;1.40;;
15748;SDS011;7976;52.526;13.326;2023-09-19T03:52:00;5.95;;;1.48;;
15748;SDS011;7976;52.526;13.326;2023-09-19T03:54:27;4.65;;;1.42;;
15748;SDS011;7976;52.526;13.326;2023-09-19T03:56:54;8.13;;;1.48;;
15748;SDS011;7976;52.526;13.326;2023-09-19T03:59:22;4.78;;;1.30;;
15748;SDS011;7976;52.526;13.326;2023-09-19T04:01:49;4.35;;;1.40;;
15748;SDS011;7976;52.526;13.326;2023-09-19T04:04:21;4.22;;;1.17;;
15748;SDS011;7976;52.526;13.326;2023-09-19T04:06:49;5.28;;;1.50;;
15748;SDS011;7976;52.526;13.326;2023-09-19T04:09:17;6.53;;;1.60;;
15748;SDS011;7976;52.526;13.326;2023-09-19T04:11:44;5.57;;;1.77;;
15748;SDS011;7976;52.526;13.326;2023-09-19T04:14:11;4.78;;;1.38;;
15748;SDS011;7976;52.526;13.326;2023-09-19T04:16:39;5.28;;;1.48;;
15748;SDS011;7976;52.526;13.326;2023-09-19T04:19:06;5.20;;;1.35;;
15748;SDS011;7976;52.526;13.326;2023-09-19T04:21:33;4.18;;;1.52;;
15748;SDS011;7976;52.526;13.326;2023-09-19T04:24:00;6.22;;;1.60;;
15748;SDS011;7976;52.526;13.326;2023-09-19T04:26:26;6.20;;;1.55;;
15748;SDS011;7976;52.526;13.326;2023-09-19T04:28:53;6.45;;;1.63;;
15748;SDS011;7976;52.526;13.326;2023-09-19T04:31:21;6.85;;;1.70;;
15748;SDS011;7976;52.526;13.326;2023-09-19T04:33:49;5.45;;;1.48;;
15748;SDS011;7976;52.526;13.326;2023-09-19T04:36:16;4.70;;;1.60;;
15748;SDS011;7976;52.526;13.326;2023-09-19T04:38:43;4.28;;;1.40;;
15748;SDS011;7976;52.526;13.326;2023-09-19T04:41:09;5.43;;;1.55;;
15748;SDS011;7976;52.526;13.326;2023-09-19T04:43:35;6.75;;;1.65;;
15748;SDS011;7976;52.526;13.326;2023-09-19T04:46:02;3.58;;;1.30;;
15748;SDS011;7976;52.526;13.326;2023-09-19T04:48:31;4.82;;;1.63;;
15748;SDS011;7976;52.526;13.326;2023-09-19T04:51:00;5.03;;;1.63;;
15748;SDS011;7976;52.526;13.326;2023-09-19T04:53:28;6.10;;;1.70;;
15748;SDS011;7976;52.526;13.326;2023-09-19T04:55:55;5.85;;;1.92;;
15748;SDS011;7976;52.526;13.326;2023-09-19T04:58:23;4.82;;;1.50;;
15748;SDS011;7976;52.526;13.326;2023-09-19T05:00:50;5.10;;;1.40;;
15748;SDS011;7976;52.526;13.326;2023-09-19T05:03:17;5.18;;;1.42;;
15748;SDS011;7976;52.526;13.326;2023-09-19T05:05:46;3.97;;;1.42;;
15748;SDS011;7976;52.526;13.326;2023-09-19T05:08:14;6.57;;;1.48;;
15748;SDS011;7976;52.526;13.326;2023-09-19T05:10:41;5.85;;;1.38;;
15748;SDS011;7976;52.526;13.326;2023-09-19T05:13:08;5.95;;;1.48;;
15748;SDS011;7976;52.526;13.326;2023-09-19T05:15:35;8.20;;;2.13;;
15748;SDS011;7976;52.526;13.326;2023-09-19T05:18:02;4.28;;;1.50;;
15748;SDS011;7976;52.526;13.326;2023-09-19T05:20:31;4.68;;;1.60;;
15748;SDS011;7976;52.526;13.326;2023-09-19T05:23:00;5.15;;;1.50;;
15748;SDS011;7976;52.526;13.326;2023-09-19T05:25:30;4.35;;;1.48;;
15748;SDS011;7976;52.526;13.326;2023-09-19T05:28:05;5.10;;;1.60;;
15748;SDS011;7976;52.526;13.326;2023-09-19T05:30:33;7.10;;;1.70;;
15748;SDS011;7976;52.526;13.326;2023-09-19T05:33:01;5.45;;;1.73;;
15748;SDS011;7976;52.526;13.326;2023-09-19T05:35:29;7.30;;;1.58;;
15748;SDS011;7976;52.526;13.326;2023-09-19T05:37:57;6.85;;;1.60;;
15748;SDS011;7976;52.526;13.326;2023-09-19T05:40:24;5.00;;;1.42;;
15748;SDS011;7976;52.526;13.326;2023-09-19T05:42:53;4.32;;;1.40;;
15748;SDS011;7976;52.526;13.326;2023-09-19T05:45:20;6.70;;;1.77;;
15748;SDS011;7976;52.526;13.326;2023-09-19T05:47:48;5.60;;;1.80;;
15748;SDS011;7976;52.526;13.326;2023-09-19T05:50:16;6.95;;;1.80;;
15748;SDS011;7976;52.526;13.326;2023-09-19T05:52:51;5.45;;;1.80;;
15748;SDS011;7976;52.526;13.326;2023-09-19T05:55:18;5.70;;;1.60;;
15748;SDS011;7976;52.526;13.326;2023-09-19T05:57:49;6.00;;;1.65;;
15748;SDS011;7976;52.526;13.326;2023-09-19T06:00:18;6.13;;;1.90;;
15748;SDS011;7976;52.526;13.326;2023-09-19T06:02:49;4.80;;;1.50;;
15748;SDS011;7976;52.526;13.326;2023-09-19T06:05:16;5.57;;;1.45;;
15748;SDS011;7976;52.526;13.326;2023-09-19T06:07:42;7.78;;;1.88;;
15748;SDS011;7976;52.526;13.326;2023-09-19T06:10:09;5.60;;;1.80;;
15748;SDS011;7976;52.526;13.326;2023-09-19T06:12:37;7.30;;;1.90;;
15748;SDS011;7976;52.526;13.326;2023-09-19T06:15:05;10.20;;;2.15;;
15748;SDS011;7976;52.526;13.326;2023-09-19T06:17:35;6.22;;;1.80;;
15748;SDS011;7976;52.526;13.326;2023-09-19T06:20:04;6.13;;;1.90;;
15748;SDS011;7976;52.526;13.326;2023-09-19T06:22:37;7.50;;;1.95;;
15748;SDS011;7976;52.526;13.326;2023-09-19T06:25:06;6.68;;;1.75;;
15748;SDS011;7976;52.526;13.326;2023-09-19T06:27:36;5.38;;;1.85;;
15748;SDS011;7976;52.526;13.326;2023-09-19T06:30:05;6.35;;;1.50;;
15748;SDS011;7976;52.526;13.326;2023-09-19T06:32:35;5.68;;;1.70;;
15748;SDS011;7976;52.526;13.326;2023-09-19T06:35:02;7.38;;;1.90;;
15748;SDS011;7976;52.526;13.326;2023-09-19T06:37:32;6.35;;;1.65;;
15748;SDS011;7976;52.526;13.326;2023-09-19T06:39:59;7.00;;;1.65;;
15748;SDS011;7976;52.526;13.326;2023-09-19T06:42:26;5.93;;;1.83;;
15748;SDS011;7976;52.526;13.326;2023-09-19T06:44:53;4.65;;;1.60;;
15748;SDS011;7976;52.526;13.326;2023-09-19T06:47:21;7.38;;;1.90;;
15748;SDS011;7976;52.526;13.326;2023-09-19T06:49:52;7.38;;;1.90;;
15748;SDS011;7976;52.526;13.326;2023-09-19T06:52:19;6.45;;;2.13;;
15748;SDS011;7976;52.526;13.326;2023-09-19T06:54:47;6.82;;;2.00;;
15748;SDS011;7976;52.526;13.326;2023-09-19T06:57:15;7.28;;;1.90;;
15748;SDS011;7976;52.526;13.326;2023-09-19T06:59:42;6.72;;;1.80;;
15748;SDS011;7976;52.526;13.326;2023-09-19T07:02:10;9.35;;;2.00;;
15748;SDS011;7976;52.526;13.326;2023-09-19T07:04:37;7.03;;;2.00;;
15748;SDS011;7976;52.526;13.326;2023-09-19T07:07:05;6.60;;;2.22;;
15748;SDS011;7976;52.526;13.326;2023-09-19T07:09:32;6.88;;;1.92;;
15748;SDS011;7976;52.526;13.326;2023-09-19T07:11:59;4.72;;;1.73;;
15748;SDS011;7976;52.526;13.326;2023-09-19T07:14:26;8.43;;;1.95;;
15748;SDS011;7976;52.526;13.326;2023-09-19T07:16:55;4.30;;;1.60;;
15748;SDS011;7976;52.526;13.326;2023-09-19T07:19:22;8.10;;;1.70;;
15748;SDS011;7976;52.526;13.326;2023-09-19T07:21:48;9.32;;;2.33;;
15748;SDS011;7976;52.526;13.326;2023-09-19T07:24:17;6.90;;;1.90;;
15748;SDS011;7976;52.526;13.326;2023-09-19T07:26:45;9.38;;;1.88;;
15748;SDS011;7976;52.526;13.326;2023-09-19T07:29:12;5.88;;;1.90;;
15748;SDS011;7976;52.526;13.326;2023-09-19T07:31:38;7.50;;;1.90;;
15748;SDS011;7976;52.526;13.326;2023-09-19T07:34:05;10.20;;;2.38;;
15748;SDS011;7976;52.526;13.326;2023-09-19T07:36:33;7.15;;;2.10;;
15748;SDS011;7976;52.526;13.326;2023-09-19T07:39:02;5.05;;;1.92;;
15748;SDS011;7976;52.526;13.326;2023-09-19T07:41:33;7.28;;;2.00;;
15748;SDS011;7976;52.526;13.326;2023-09-19T07:44:00;8.05;;;2.03;;
15748;SDS011;7976;52.526;13.326;2023-09-19T07:46:27;10.65;;;3.70;;
15748;SDS011;7976;52.526;13.326;2023-09-19T07:48:56;6.70;;;2.40;;
15748;SDS011;7976;52.526;13.326;2023-09-19T07:51:23;9.27;;;2.60;;
15748;SDS011;7976;52.526;13.326;2023-09-19T07:53:50;9.02;;;2.50;;
15748;SDS011;7976;52.526;13.326;2023-09-19T07:56:17;6.90;;;2.25;;
15748;SDS011;7976;52.526;13.326;2023-09-19T07:58:47;6.45;;;2.30;;
15748;SDS011;7976;52.526;13.326;2023-09-19T08:01:14;7.60;;;2.45;;
15748;SDS011;7976;52.526;13.326;2023-09-19T08:03:41;9.77;;;2.50;;
15748;SDS011;7976;52.526;13.326;2023-09-19T08:06:09;10.25;;;2.38;;
15748;SDS011;7976;52.526;13.326;2023-09-19T08:08:36;8.13;;;2.33;;
15748;SDS011;7976;52.526;13.326;2023-09-19T08:11:04;6.53;;;2.20;;
15748;SDS011;7976;52.526;13.326;2023-09-19T08:13:37;10.40;;;2.33;;
15748;SDS011;7976;52.526;13.326;2023-09-19T08:16:10;6.82;;;2.20;;
15748;SDS011;7976;52.526;13.326;2023-09-19T08:18:37;7.85;;;2.03;;
15748;SDS011;7976;52.526;13.326;2023-09-19T08:21:05;8.13;;;2.00;;
15748;SDS011;7976;52.526;13.326;2023-09-19T08:23:33;11.20;;;2.45;;
15748;SDS011;7976;52.526;13.326;2023-09-19T08:26:00;6.95;;;1.95;;
15748;SDS011;7976;52.526;13.326;2023-09-19T08:28:31;7.38;;;1.92;;
15748;SDS011;7976;52.526;13.326;2023-09-19T08:31:01;7.70;;;2.38;;
15748;SDS011;7976;52.526;13.326;2023-09-19T08:33:32;8.90;;;2.67;;
15748;SDS011;7976;52.526;13.326;2023-09-19T08:36:00;8.77;;;2.50;;
15748;SDS011;7976;52.526;13.326;2023-09-19T08:38:30;7.28;;;2.47;;
15748;SDS011;7976;52.526;13.326;2023-09-19T08:40:58;7.82;;;2.30;;
15748;SDS011;7976;52.526;13.326;2023-09-19T08:43:26;8.02;;;2.50;;
15748;SDS011;7976;52.526;13.326;2023-09-19T08:45:56;9.57;;;2.47;;
15748;SDS011;7976;52.526;13.326;2023-09-19T08:48:35;9.07;;;2.40;;
15748;SDS011;7976;52.526;13.326;2023-09-19T08:51:17;7.30;;;2.63;;
15748;SDS011;7976;52.526;13.326;2023-09-19T08:53:54;7.90;;;2.45;;
15748;SDS011;7976;52.526;13.326;2023-09-19T08:56:29;6.88;;;2.28;;
15748;SDS011;7976;52.526;13.326;2023-09-19T08:58:59;9.63;;;2.80;;
15748;SDS011;7976;52.526;13.326;2023-09-19T09:01:29;10.13;;;2.30;;
15748;SDS011;7976;52.526;13.326;2023-09-19T09:03:59;7.47;;;2.13;;
15748;SDS011;7976;52.526;13.326;2023-09-19T09:06:29;8.57;;;2.30;;
15748;SDS011;7976;52.526;13.326;2023-09-19T09:08:57;8.55;;;2.60;;
15748;SDS011;7976;52.526;13.326;2023-09-19T09:11:24;9.63;;;2.40;;
15748;SDS011;7976;52.526;13.326;2023-09-19T09:13:53;8.40;;;2.50;;
15748;SDS011;7976;52.526;13.326;2023-09-19T09:16:20;9.73;;;2.50;;
15748;SDS011;7976;52.526;13.326;2023-09-19T09:18:51;8.38;;;2.40;;
15748;SDS011;7976;52.526;13.326;2023-09-19T09:21:21;8.18;;;2.50;;
15748;SDS011;7976;52.526;13.326;2023-09-19T09:23:51;9.07;;;2.67;;
15748;SDS011;7976;52.526;13.326;2023-09-19T09:26:22;8.65;;;2.60;;
15748;SDS011;7976;52.526;13.326;2023-09-19T09:29:09;10.18;;;2.85;;
15748;SDS011;7976;52.526;13.326;2023-09-19T09:31:35;7.32;;;2.53;;
15748;SDS011;7976;52.526;13.326;2023-09-19T09:34:03;9.38;;;2.40;;
15748;SDS011;7976;52.526;13.326;2023-09-19T09:36:34;7.43;;;2.35;;
15748;SDS011;7976;52.526;13.326;2023-09-19T09:39:04;10.85;;;3.05;;
15748;SDS011;7976;52.526;13.326;2023-09-19T09:41:43;10.93;;;2.75;;
15748;SDS011;7976;52.526;13.326;2023-09-19T09:44:14;8.82;;;2.63;;
15748;SDS011;7976;52.526;13.326;2023-09-19T09:46:44;8.90;;;2.65;;
15748;SDS011;7976;52.526;13.326;2023-09-19T09:49:46;6.60;;;2.15;;
15748;SDS011;7976;52.526;13.326;2023-09-19T09:52:33;7.90;;;2.55;;
15748;SDS011;7976;52.526;13.326;2023-09-19T09:55:12;9.30;;;2.30;;
15748;SDS011;7976;52.526;13.326;2023-09-19T09:57:38;10.27;;;2.78;;
15748;SDS011;7976;52.526;13.326;2023-09-19T10:00:07;8.10;;;2.15;;
15748;SDS011;7976;52.526;13.326;2023-09-19T10:02:45;8.48;;;2.67;;
15748;SDS011;7976;52.526;13.326;2023-09-19T10:05:12;9.43;;;2.28;;
15748;SDS011;7976;52.526;13.326;2023-09-19T10:07:48;9.35;;;2.40;;
15748;SDS011;7976;52.526;13.326;2023-09-19T10:10:29;8.15;;;2.38;;
15748;SDS011;7976;52.526;13.326;2023-09-19T10:13:04;7.70;;;2.42;;
15748;SDS011;7976;52.526;13.326;2023-09-19T10:15:33;9.13;;;2.40;;
15748;SDS011;7976;52.526;13.326;2023-09-19T10:18:03;9.77;;;2.70;;
15748;SDS011;7976;52.526;13.326;2023-09-19T10:20:33;8.05;;;2.58;;
15748;SDS011;7976;52.526;13.326;2023-09-19T10:23:06;9.18;;;2.60;;
15748;SDS011;7976;52.526;13.326;2023-09-19T10:25:36;8.05;;;2.40;;
15748;SDS011;7976;52.526;13.326;2023-09-19T10:28:05;11.43;;;2.42;;
15748;SDS011;7976;52.526;13.326;2023-09-19T10:30:36;8.02;;;2.47;;
15748;SDS011;7976;52.526;13.326;2023-09-19T10:33:10;10.27;;;2.60;;
15748;SDS011;7976;52.526;13.326;2023-09-19T10:35:39;10.45;;;2.63;;
15748;SDS011;7976;52.526;13.326;2023-09-19T10:38:11;7.80;;;2.00;;
15748;SDS011;7976;52.526;13.326;2023-09-19T10:40:39;8.80;;;2.40;;
15748;SDS011;7976;52.526;13.326;2023-09-19T10:43:11;7.72;;;2.35;;
15748;SDS011;7976;52.526;13.326;2023-09-19T10:45:42;9.30;;;2.38;;
15748;SDS011;7976;52.526;13.326;2023-09-19T10:48:14;7.55;;;2.15;;
15748;SDS011;7976;52.526;13.326;2023-09-19T10:50:44;10.98;;;2.30;;
15748;SDS011;7976;52.526;13.326;2023-09-19T10:53:21;9.27;;;2.38;;
15748;SDS011;7976;52.526;13.326;2023-09-19T10:55:50;8.70;;;2.20;;
15748;SDS011;7976;52.526;13.326;2023-09-19T10:58:25;7.85;;;2.05;;
15748;SDS011;7976;52.526;13.326;2023-09-19T11:00:54;8.65;;;2.53;;
15748;SDS011;7976;52.526;13.326;2023-09-19T11:03:30;10.95;;;2.55;;
15748;SDS011;7976;52.526;13.326;2023-09-19T11:08:55;9.90;;;2.00;;
15748;SDS011;7976;52.526;13.326;2023-09-19T11:11:45;8.48;;;2.50;;
15748;SDS011;7976;52.526;13.326;2023-09-19T11:14:28;7.65;;;2.45;;
15748;SDS011;7976;52.526;13.326;2023-09-19T11:25:53;9.27;;;2.65;;
15748;SDS011;7976;52.526;13.326;2023-09-19T11:28:30;9.13;;;2.38;;
15748;SDS011;7976;52.526;13.326;2023-09-19T11:40:36;7.10;;;1.77;;
15748;SDS011;7976;52.526;13.326;2023-09-19T11:46:04;9.85;;;2.08;;
15748;SDS011;7976;52.526;13.326;2023-09-19T11:48:32;7.68;;;2.28;;
15748;SDS011;7976;52.526;13.326;2023-09-19T11:51:09;8.25;;;2.05;;
15748;SDS011;7976;52.526;13.326;2023-09-19T11:53:47;11.30;;;2.10;;
15748;SDS011;7976;52.526;13.326;2023-09-19T11:56:15;10.20;;;2.30;;
15748;SDS011;7976;52.526;13.326;2023-09-19T11:58:46;11.30;;;2.58;;
15748;SDS011;7976;52.526;13.326;2023-09-19T12:01:21;9.50;;;1.90;;
15748;SDS011;7976;52.526;13.326;2023-09-19T12:03:54;7.88;;;1.73;;
15748;SDS011;7976;52.526;13.326;2023-09-19T12:06:24;9.02;;;2.45;;
15748;SDS011;7976;52.526;13.326;2023-09-19T12:08:54;9.00;;;2.58;;
15748;SDS011;7976;52.526;13.326;2023-09-19T12:11:27;8.35;;;2.33;;
15748;SDS011;7976;52.526;13.326;2023-09-19T12:13:59;9.82;;;2.20;;
15748;SDS011;7976;52.526;13.326;2023-09-19T12:16:27;7.90;;;2.08;;
15748;SDS011;7976;52.526;13.326;2023-09-19T12:18:55;7.88;;;1.50;;
15748;SDS011;7976;52.526;13.326;2023-09-19T12:21:24;9.23;;;1.73;;
15748;SDS011;7976;52.526;13.326;2023-09-19T12:23:57;6.78;;;1.70;;
15748;SDS011;7976;52.526;13.326;2023-09-19T12:26:38;5.85;;;1.80;;
15748;SDS011;7976;52.526;13.326;2023-09-19T12:29:12;7.15;;;1.65;;
15748;SDS011;7976;52.526;13.326;2023-09-19T12:31:52;7.93;;;1.75;;
15748;SDS011;7976;52.526;13.326;2023-09-19T12:34:24;8.77;;;1.65;;
15748;SDS011;7976;52.526;13.326;2023-09-19T12:37:05;8.63;;;1.58;;
15748;SDS011;7976;52.526;13.326;2023-09-19T12:39:46;8.35;;;1.60;;
15748;SDS011;7976;52.526;13.326;2023-09-19T12:42:16;7.40;;;1.83;;
15748;SDS011;7976;52.526;13.326;2023-09-19T12:44:47;5.13;;;1.50;;
15748;SDS011;7976;52.526;13.326;2023-09-19T12:47:20;7.53;;;2.00;;
15748;SDS011;7976;52.526;13.326;2023-09-19T12:52:42;6.97;;;1.42;;
15748;SDS011;7976;52.526;13.326;2023-09-19T12:55:25;7.90;;;1.58;;
15748;SDS011;7976;52.526;13.326;2023-09-19T12:58:11;6.22;;;2.10;;
15748;SDS011;7976;52.526;13.326;2023-09-19T13:00:42;7.13;;;1.80;;
15748;SDS011;7976;52.526;13.326;2023-09-19T13:03:15;6.22;;;1.70;;
15748;SDS011;7976;52.526;13.326;2023-09-19T13:05:50;6.63;;;1.80;;
15748;SDS011;7976;52.526;13.326;2023-09-19T13:08:21;6.53;;;1.58;;
15748;SDS011;7976;52.526;13.326;2023-09-19T13:11:01;6.47;;;1.58;;
15748;SDS011;7976;52.526;13.326;2023-09-19T13:13:31;8.88;;;1.67;;
15748;SDS011;7976;52.526;13.326;2023-09-19T13:16:02;7.30;;;1.70;;
15748;SDS011;7976;52.526;13.326;2023-09-19T13:18:41;6.63;;;1.92;;
15748;SDS011;7976;52.526;13.326;2023-09-19T13:21:11;8.02;;;1.85;;
15748;SDS011;7976;52.526;13.326;2023-09-19T13:23:47;8.00;;;1.83;;
15748;SDS011;7976;52.526;13.326;2023-09-19T13:26:16;8.35;;;1.98;;
15748;SDS011;7976;52.526;13.326;2023-09-19T13:28:44;8.70;;;1.90;;
15748;SDS011;7976;52.526;13.326;2023-09-19T13:31:14;7.78;;;1.95;;
15748;SDS011;7976;52.526;13.326;2023-09-19T13:33:45;5.63;;;1.48;;
15748;SDS011;7976;52.526;13.326;2023-09-19T13:36:14;7.88;;;1.92;;
15748;SDS011;7976;52.526;13.326;2023-09-19T13:38:41;6.78;;;1.63;;
15748;SDS011;7976;52.526;13.326;2023-09-19T13:41:08;5.72;;;1.80;;
15748;SDS011;7976;52.526;13.326;2023-09-19T13:43:36;8.10;;;2.20;;
15748;SDS011;7976;52.526;13.326;2023-09-19T13:46:04;7.72;;;1.98;;
15748;SDS011;7976;52.526;13.326;2023-09-19T13:48:34;6.85;;;1.73;;
15748;SDS011;7976;52.526;13.326;2023-09-19T13:51:01;8.20;;;1.30;;
15748;SDS011;7976;52.526;13.326;2023-09-19T13:53:29;8.10;;;1.90;;
15748;SDS011;7976;52.526;13.326;2023-09-19T13:55:56;6.72;;;1.92;;
15748;SDS011;7976;52.526;13.326;2023-09-19T13:58:23;6.70;;;1.40;;
15748;SDS011;7976;52.526;13.326;2023-09-19T14:00:51;7.20;;;2.00;;
15748;SDS011;7976;52.526;13.326;2023-09-19T14:03:20;5.38;;;1.35;;
15748;SDS011;7976;52.526;13.326;2023-09-19T14:05:48;7.18;;;1.90;;
15748;SDS011;7976;52.526;13.326;2023-09-19T14:08:16;6.82;;;1.70;;
15748;SDS011;7976;52.526;13.326;2023-09-19T14:10:43;6.25;;;1.58;;
15748;SDS011;7976;52.526;13.326;2023-09-19T14:13:11;7.28;;;1.70;;
15748;SDS011;7976;52.526;13.326;2023-09-19T14:15:40;7.10;;;1.65;;
15748;SDS011;7976;52.526;13.326;2023-09-19T14:18:07;9.02;;;1.90;;
15748;SDS011;7976;52.526;13.326;2023-09-19T14:20:37;6.70;;;1.60;;
15748;SDS011;7976;52.526;13.326;2023-09-19T14:23:07;6.60;;;1.52;;
15748;SDS011;7976;52.526;13.326;2023-09-19T14:25:34;9.30;;;1.85;;
15748;SDS011;7976;52.526;13.326;2023-09-19T14:28:03;9.82;;;2.05;;
15748;SDS011;7976;52.526;13.326;2023-09-19T14:30:33;8.45;;;1.98;;
15748;SDS011;7976;52.526;13.326;2023-09-19T14:32:59;6.22;;;2.03;;
15748;SDS011;7976;52.526;13.326;2023-09-19T14:35:27;7.85;;;1.80;;
15748;SDS011;7976;52.526;13.326;2023-09-19T14:37:54;8.90;;;1.70;;
15748;SDS011;7976;52.526;13.326;2023-09-19T14:40:22;5.68;;;1.67;;
15748;SDS011;7976;52.526;13.326;2023-09-19T14:42:49;6.70;;;1.73;;
15748;SDS011;7976;52.526;13.326;2023-09-19T14:45:16;7.50;;;1.75;;
15748;SDS011;7976;52.526;13.326;2023-09-19T14:47:43;10.27;;;2.10;;
15748;SDS011;7976;52.526;13.326;2023-09-19T14:50:12;6.47;;;1.67;;
15748;SDS011;7976;52.526;13.326;2023-09-19T14:52:40;6.80;;;2.05;;
15748;SDS011;7976;52.526;13.326;2023-09-19T14:55:07;5.28;;;1.67;;
15748;SDS011;7976;52.526;13.326;2023-09-19T14:57:41;6.07;;;1.85;;
15748;SDS011;7976;52.526;13.326;2023-09-19T15:00:12;8.85;;;1.50;;
15748;SDS011;7976;52.526;13.326;2023-09-19T15:02:41;5.10;;;1.45;;
15748;SDS011;7976;52.526;13.326;2023-09-19T15:05:10;7.47;;;2.20;;
15748;SDS011;7976;52.526;13.326;2023-09-19T15:07:37;9.48;;;2.10;;
15748;SDS011;7976;52.526;13.326;2023-09-19T15:10:05;6.65;;;1.77;;
15748;SDS011;7976;52.526;13.326;2023-09-19T15:12:34;7.28;;;1.73;;
15748;SDS011;7976;52.526;13.326;2023-09-19T15:15:04;6.95;;;1.90;;
15748;SDS011;7976;52.526;13.326;2023-09-19T15:17:33;8.98;;;2.28;;
15748;SDS011;7976;52.526;13.326;2023-09-19T15:20:00;7.43;;;1.80;;
15748;SDS011;7976;52.526;13.326;2023-09-19T15:22:31;7.82;;;1.85;;
15748;SDS011;7976;52.526;13.326;2023-09-19T15:24:58;8.85;;;2.10;;
15748;SDS011;7976;52.526;13.326;2023-09-19T15:27:25;8.18;;;2.03;;
15748;SDS011;7976;52.526;13.326;2023-09-19T15:29:52;9.18;;;2.30;;
15748;SDS011;7976;52.526;13.326;2023-09-19T15:32:20;9.60;;;2.25;;